sensor_id;sensor_type;location;lat;lon;timestamp;pressure;altitude;pressure_sealevel;temperature;humidity
22025;BME280;11176;51.448;6.650;2023-04-27T00:00:47;38191.69;;;-141.29;93.11
22025;BME280;11176;51.448;6.650;2023-04-27T00:03:14;38231.59;;;-141.29;93.22
22025;BME280;11176;51.448;6.650;2023-04-27T00:05:41;38249.53;;;-141.29;93.54
22025;BME280;11176;51.448;6.650;2023-04-27T00:08:08;38241.56;;;-141.29;93.68
22025;BME280;11176;51.448;6.650;2023-04-27T00:10:34;38323.31;;;-141.29;94.24
22025;BME280;11176;51.448;6.650;2023-04-27T00:13:01;38343.25;;;-141.29;94.39
22025;BME280;11176;51.448;6.650;2023-04-27T00:15:28;38359.22;;;-141.29;94.87
22025;BME280;11176;51.448;6.650;2023-04-27T00:17:54;38359.22;;;-141.29;95.24
22025;BME280;11176;51.448;6.650;2023-04-27T00:20:22;38448.94;;;-141.29;95.72
22025;BME280;11176;51.448;6.650;2023-04-27T00:22:49;38470.88;;;-141.29;95.59
22025;BME280;11176;51.448;6.650;2023-04-27T00:25:15;38496.81;;;-141.29;95.97
22025;BME280;11176;51.448;6.650;2023-04-27T00:27:42;38550.66;;;-141.29;96.27
22025;BME280;11176;51.448;6.650;2023-04-27T00:30:08;38600.53;;;-141.29;96.63
22025;BME280;11176;51.448;6.650;2023-04-27T00:32:35;38626.44;;;-141.29;96.72
22025;BME280;11176;51.448;6.650;2023-04-27T00:35:02;38658.34;;;-141.29;96.78
22025;BME280;11176;51.448;6.650;2023-04-27T00:37:28;38688.28;;;-141.29;97.06
22025;BME280;11176;51.448;6.650;2023-04-27T00:39:55;38776.03;;;-141.29;97.52
22025;BME280;11176;51.448;6.650;2023-04-27T00:42:21;38791.97;;;-141.29;97.65
22025;BME280;11176;51.448;6.650;2023-04-27T00:44:49;38873.75;;;-141.29;98.01
22025;BME280;11176;51.448;6.650;2023-04-27T00:47:16;38901.69;;;-141.29;98.48
22025;BME280;11176;51.448;6.650;2023-04-27T00:49:43;38951.56;;;-141.29;98.71
22025;BME280;11176;51.448;6.650;2023-04-27T00:52:10;38977.47;;;-141.29;98.95
22025;BME280;11176;51.448;6.650;2023-04-27T00:54:37;39025.34;;;-141.29;98.87
22025;BME280;11176;51.448;6.650;2023-04-27T00:57:03;39101.16;;;-141.29;99.31
22025;BME280;11176;51.448;6.650;2023-04-27T00:59:30;39157.00;;;-141.29;98.97
22025;BME280;11176;51.448;6.650;2023-04-27T01:01:57;39198.88;;;-141.29;99.13
22025;BME280;11176;51.448;6.650;2023-04-27T01:04:24;39236.78;;;-141.29;99.38
22025;BME280;11176;51.448;6.650;2023-04-27T01:06:53;39262.72;;;-141.29;99.67
22025;BME280;11176;51.448;6.650;2023-04-27T01:09:20;39312.59;;;-141.29;99.76
22025;BME280;11176;51.448;6.650;2023-04-27T01:11:48;39400.34;;;-141.29;99.98
22025;BME280;11176;51.448;6.650;2023-04-27T01:14:15;39396.38;;;-141.29;100.00
22025;BME280;11176;51.448;6.650;2023-04-27T01:16:42;39444.25;;;-141.29;100.00
22025;BME280;11176;51.448;6.650;2023-04-27T01:19:09;39500.09;;;-141.29;100.00
22025;BME280;11176;51.448;6.650;2023-04-27T01:21:36;39565.94;;;-141.29;100.00
22025;BME280;11176;51.448;6.650;2023-04-27T01:24:05;39619.81;;;-141.29;100.00
22025;BME280;11176;51.448;6.650;2023-04-27T01:26:32;39649.72;;;-141.29;100.00
22025;BME280;11176;51.448;6.650;2023-04-27T01:28:58;39689.63;;;-141.29;100.00
22025;BME280;11176;51.448;6.650;2023-04-27T01:31:26;39727.53;;;-141.29;100.00
22025;BME280;11176;51.448;6.650;2023-04-27T01:33:52;39761.44;;;-141.29;100.00
22025;BME280;11176;51.448;6.650;2023-04-27T01:36:18;39829.28;;;-141.29;100.00
22025;BME280;11176;51.448;6.650;2023-04-27T01:38:46;39851.22;;;-141.29;100.00
22025;BME280;11176;51.448;6.650;2023-04-27T01:41:13;39919.06;;;-141.29;100.00
22025;BME280;11176;51.448;6.650;2023-04-27T01:43:40;39958.97;;;-141.29;100.00
22025;BME280;11176;51.448;6.650;2023-04-27T01:46:11;39968.94;;;-141.29;100.00
22025;BME280;11176;51.448;6.650;2023-04-27T01:48:40;40016.81;;;-141.29;100.00
22025;BME280;11176;51.448;6.650;2023-04-27T01:51:07;40046.75;;;-141.29;100.00
22025;BME280;11176;51.448;6.650;2023-04-27T01:53:33;40094.63;;;-141.29;100.00
22025;BME280;11176;51.448;6.650;2023-04-27T01:56:00;40114.59;;;-141.29;100.00
22025;BME280;11176;51.448;6.650;2023-04-27T01:58:26;40152.50;;;-141.29;100.00
22025;BME280;11176;51.448;6.650;2023-04-27T02:00:53;40186.41;;;-141.29;100.00
22025;BME280;11176;51.448;6.650;2023-04-27T02:03:20;40222.34;;;-141.29;100.00
22025;BME280;11176;51.448;6.650;2023-04-27T02:05:49;40236.31;;;-141.29;100.00
22025;BME280;11176;51.448;6.650;2023-04-27T02:08:15;40258.25;;;-141.29;100.00
22025;BME280;11176;51.448;6.650;2023-04-27T02:10:43;40292.19;;;-141.29;100.00
22025;BME280;11176;51.448;6.650;2023-04-27T02:13:09;40322.09;;;-141.29;100.00
22025;BME280;11176;51.448;6.650;2023-04-27T02:15:36;40362.00;;;-141.29;100.00
22025;BME280;11176;51.448;6.650;2023-04-27T02:18:03;40385.97;;;-141.29;100.00
22025;BME280;11176;51.448;6.650;2023-04-27T02:20:30;40377.97;;;-141.29;100.00
22025;BME280;11176;51.448;6.650;2023-04-27T02:22:59;40409.91;;;-141.29;100.00
22025;BME280;11176;51.448;6.650;2023-04-27T02:25:26;40455.81;;;-141.29;100.00
22025;BME280;11176;51.448;6.650;2023-04-27T02:27:53;40451.81;;;-141.29;100.00
22025;BME280;11176;51.448;6.650;2023-04-27T02:30:20;40519.66;;;-141.29;100.00
22025;BME280;11176;51.448;6.650;2023-04-27T02:32:47;40557.56;;;-141.29;100.00
22025;BME280;11176;51.448;6.650;2023-04-27T02:35:14;40577.53;;;-141.29;100.00
22025;BME280;11176;51.448;6.650;2023-04-27T02:37:41;40611.44;;;-141.29;100.00
22025;BME280;11176;51.448;6.650;2023-04-27T02:40:08;40605.47;;;-141.29;100.00
22025;BME280;11176;51.448;6.650;2023-04-27T02:42:35;40667.31;;;-141.29;100.00
22025;BME280;11176;51.448;6.650;2023-04-27T02:45:05;40693.28;;;-141.29;100.00
22025;BME280;11176;51.448;6.650;2023-04-27T02:47:32;40697.25;;;-141.29;100.00
22025;BME280;11176;51.448;6.650;2023-04-27T02:50:00;40705.25;;;-141.29;100.00
22025;BME280;11176;51.448;6.650;2023-04-27T02:52:26;40745.16;;;-141.29;100.00
22025;BME280;11176;51.448;6.650;2023-04-27T02:54:53;40745.16;;;-141.29;100.00
22025;BME280;11176;51.448;6.650;2023-04-27T02:57:19;40769.09;;;-141.29;100.00
22025;BME280;11176;51.448;6.650;2023-04-27T02:59:46;40799.03;;;-141.29;100.00
22025;BME280;11176;51.448;6.650;2023-04-27T03:02:13;40785.06;;;-141.29;100.00
22025;BME280;11176;51.448;6.650;2023-04-27T03:04:39;40809.00;;;-141.29;100.00
22025;BME280;11176;51.448;6.650;2023-04-27T03:07:06;40828.97;;;-141.29;100.00
22025;BME280;11176;51.448;6.650;2023-04-27T03:09:33;40840.94;;;-141.29;100.00
22025;BME280;11176;51.448;6.650;2023-04-27T03:11:59;40852.91;;;-141.29;100.00
22025;BME280;11176;51.448;6.650;2023-04-27T03:14:26;40884.84;;;-141.29;100.00
22025;BME280;11176;51.448;6.650;2023-04-27T03:16:52;40872.88;;;-141.29;100.00
22025;BME280;11176;51.448;6.650;2023-04-27T03:19:21;40932.75;;;-141.29;100.00
22025;BME280;11176;51.448;6.650;2023-04-27T03:21:48;40926.75;;;-141.29;100.00
22025;BME280;11176;51.448;6.650;2023-04-27T03:24:15;40936.75;;;-141.29;100.00
22025;BME280;11176;51.448;6.650;2023-04-27T03:26:42;40956.69;;;-141.29;100.00
22025;BME280;11176;51.448;6.650;2023-04-27T03:29:09;40988.63;;;-141.29;100.00
22025;BME280;11176;51.448;6.650;2023-04-27T03:31:35;41006.59;;;-141.29;100.00
22025;BME280;11176;51.448;6.650;2023-04-27T03:34:02;41004.59;;;-141.29;100.00
22025;BME280;11176;51.448;6.650;2023-04-27T03:36:29;40980.66;;;-141.29;100.00
22025;BME280;11176;51.448;6.650;2023-04-27T03:38:57;41000.59;;;-141.29;100.00
22025;BME280;11176;51.448;6.650;2023-04-27T03:41:24;41040.53;;;-141.29;100.00
22025;BME280;11176;51.448;6.650;2023-04-27T03:43:50;41086.44;;;-141.29;100.00
22025;BME280;11176;51.448;6.650;2023-04-27T03:46:18;41088.44;;;-141.29;100.00
22025;BME280;11176;51.448;6.650;2023-04-27T03:48:45;41116.38;;;-141.29;100.00
22025;BME280;11176;51.448;6.650;2023-04-27T03:51:12;41110.38;;;-141.29;100.00
22025;BME280;11176;51.448;6.650;2023-04-27T03:53:42;41120.34;;;-141.29;100.00
22025;BME280;11176;51.448;6.650;2023-04-27T03:56:08;41152.28;;;-141.29;100.00
22025;BME280;11176;51.448;6.650;2023-04-27T03:58:35;41152.28;;;-141.29;100.00
22025;BME280;11176;51.448;6.650;2023-04-27T04:01:24;41168.25;;;-141.29;100.00
22025;BME280;11176;51.448;6.650;2023-04-27T04:03:52;41148.31;;;-141.29;100.00
22025;BME280;11176;51.448;6.650;2023-04-27T04:06:18;41150.28;;;-141.29;100.00
22025;BME280;11176;51.448;6.650;2023-04-27T04:08:46;41178.25;;;-141.29;100.00
22025;BME280;11176;51.448;6.650;2023-04-27T04:11:13;41180.22;;;-141.29;100.00
22025;BME280;11176;51.448;6.650;2023-04-27T04:13:39;41196.19;;;-141.29;100.00
22025;BME280;11176;51.448;6.650;2023-04-27T04:16:08;41216.16;;;-141.29;100.00
22025;BME280;11176;51.448;6.650;2023-04-27T04:18:35;41208.19;;;-141.29;100.00
22025;BME280;11176;51.448;6.650;2023-04-27T04:21:03;41208.19;;;-141.29;100.00
22025;BME280;11176;51.448;6.650;2023-04-27T04:23:30;41256.09;;;-141.29;100.00
22025;BME280;11176;51.448;6.650;2023-04-27T04:25:58;41258.06;;;-141.29;100.00
22025;BME280;11176;51.448;6.650;2023-04-27T04:28:29;41264.06;;;-141.29;100.00
22025;BME280;11176;51.448;6.650;2023-04-27T04:30:56;41276.03;;;-141.29;100.00
22025;BME280;11176;51.448;6.650;2023-04-27T04:33:23;41286.03;;;-141.29;100.00
22025;BME280;11176;51.448;6.650;2023-04-27T04:35:49;41300.00;;;-141.29;100.00
22025;BME280;11176;51.448;6.650;2023-04-27T04:38:17;41323.94;;;-141.29;100.00
22025;BME280;11176;51.448;6.650;2023-04-27T04:40:44;41337.91;;;-141.29;100.00
22025;BME280;11176;51.448;6.650;2023-04-27T04:43:11;41345.91;;;-141.29;100.00
22025;BME280;11176;51.448;6.650;2023-04-27T04:45:38;41375.84;;;-141.29;100.00
22025;BME280;11176;51.448;6.650;2023-04-27T04:48:05;41413.75;;;-141.29;100.00
22025;BME280;11176;51.448;6.650;2023-04-27T04:50:33;41431.72;;;-141.29;100.00
22025;BME280;11176;51.448;6.650;2023-04-27T04:53:00;41443.72;;;-141.29;100.00
22025;BME280;11176;51.448;6.650;2023-04-27T04:55:26;41475.63;;;-141.29;100.00
22025;BME280;11176;51.448;6.650;2023-04-27T04:57:53;41459.66;;;-141.29;100.00
22025;BME280;11176;51.448;6.650;2023-04-27T05:00:20;41499.59;;;-141.29;100.00
22025;BME280;11176;51.448;6.650;2023-04-27T05:02:47;41517.56;;;-141.29;100.00
22025;BME280;11176;51.448;6.650;2023-04-27T05:05:14;41509.56;;;-141.29;100.00
22025;BME280;11176;51.448;6.650;2023-04-27T05:07:41;41557.47;;;-141.29;100.00
22025;BME280;11176;51.448;6.650;2023-04-27T05:10:08;41579.44;;;-141.29;100.00
22025;BME280;11176;51.448;6.650;2023-04-27T05:12:34;41581.44;;;-141.29;100.00
22025;BME280;11176;51.448;6.650;2023-04-27T05:15:01;41607.38;;;-141.29;100.00
22025;BME280;11176;51.448;6.650;2023-04-27T05:17:27;41603.41;;;-141.29;100.00
22025;BME280;11176;51.448;6.650;2023-04-27T05:19:54;41611.38;;;-141.29;100.00
22025;BME280;11176;51.448;6.650;2023-04-27T05:22:21;41591.41;;;-141.29;100.00
22025;BME280;11176;51.448;6.650;2023-04-27T05:24:47;41603.41;;;-141.29;100.00
22025;BME280;11176;51.448;6.650;2023-04-27T05:27:14;41631.34;;;-141.29;100.00
22025;BME280;11176;51.448;6.650;2023-04-27T05:29:40;41627.34;;;-141.29;100.00
22025;BME280;11176;51.448;6.650;2023-04-27T05:32:07;41587.44;;;-141.29;100.00
22025;BME280;11176;51.448;6.650;2023-04-27T05:34:34;41627.34;;;-141.29;100.00
22025;BME280;11176;51.448;6.650;2023-04-27T05:37:02;41603.41;;;-141.29;100.00
22025;BME280;11176;51.448;6.650;2023-04-27T05:39:28;41603.41;;;-141.29;100.00
22025;BME280;11176;51.448;6.650;2023-04-27T05:41:55;41579.44;;;-141.29;100.00
22025;BME280;11176;51.448;6.650;2023-04-27T05:44:22;41521.56;;;-141.29;100.00
22025;BME280;11176;51.448;6.650;2023-04-27T05:46:53;41513.56;;;-141.29;100.00
22025;BME280;11176;51.448;6.650;2023-04-27T05:49:22;41459.66;;;-141.29;100.00
22025;BME280;11176;51.448;6.650;2023-04-27T05:51:48;41405.78;;;-141.29;100.00
22025;BME280;11176;51.448;6.650;2023-04-27T05:54:15;41387.81;;;-141.29;100.00
22025;BME280;11176;51.448;6.650;2023-04-27T05:56:41;41377.84;;;-141.29;100.00
22025;BME280;11176;51.448;6.650;2023-04-27T05:59:08;41331.94;;;-141.29;100.00
22025;BME280;11176;51.448;6.650;2023-04-27T06:01:35;41296.00;;;-141.29;98.79
22025;BME280;11176;51.448;6.650;2023-04-27T06:04:02;41248.09;;;-141.29;97.64
22025;BME280;11176;51.448;6.650;2023-04-27T06:06:33;41216.16;;;-141.29;96.34
22025;BME280;11176;51.448;6.650;2023-04-27T06:09:00;41162.28;;;-141.29;95.30
22025;BME280;11176;51.448;6.650;2023-04-27T06:11:27;41128.34;;;-141.29;93.79
22025;BME280;11176;51.448;6.650;2023-04-27T06:13:53;41062.47;;;-141.29;92.22
22025;BME280;11176;51.448;6.650;2023-04-27T06:16:20;41020.56;;;-141.29;90.84
22025;BME280;11176;51.448;6.650;2023-04-27T06:18:49;41000.59;;;-141.29;90.12
22025;BME280;11176;51.448;6.650;2023-04-27T06:21:15;40978.66;;;-141.29;90.49
22025;BME280;11176;51.448;6.650;2023-04-27T06:23:42;40976.66;;;-141.29;89.96
22025;BME280;11176;51.448;6.650;2023-04-27T06:26:09;40926.75;;;-141.29;88.43
22025;BME280;11176;51.448;6.650;2023-04-27T06:28:35;40886.84;;;-141.29;87.39
22025;BME280;11176;51.448;6.650;2023-04-27T06:31:02;40860.91;;;-141.29;85.60
22025;BME280;11176;51.448;6.650;2023-04-27T06:33:28;40811.00;;;-141.29;85.81
22025;BME280;11176;51.448;6.650;2023-04-27T06:35:55;40815.00;;;-141.29;85.29
22025;BME280;11176;51.448;6.650;2023-04-27T06:38:21;40781.06;;;-141.29;83.23
22025;BME280;11176;51.448;6.650;2023-04-27T06:40:51;40733.19;;;-141.29;82.43
22025;BME280;11176;51.448;6.650;2023-04-27T06:43:18;40713.22;;;-141.29;82.48
22025;BME280;11176;51.448;6.650;2023-04-27T06:45:44;40685.28;;;-141.29;81.38
22025;BME280;11176;51.448;6.650;2023-04-27T06:48:11;40615.44;;;-141.29;79.15
22025;BME280;11176;51.448;6.650;2023-04-27T06:50:38;40539.59;;;-141.29;78.51
22025;BME280;11176;51.448;6.650;2023-04-27T06:53:04;40583.50;;;-141.29;78.11
22025;BME280;11176;51.448;6.650;2023-04-27T06:55:31;40537.63;;;-141.29;77.47
22025;BME280;11176;51.448;6.650;2023-04-27T06:57:58;40527.63;;;-141.29;78.38
22025;BME280;11176;51.448;6.650;2023-04-27T07:00:25;40501.69;;;-141.29;76.96
22025;BME280;11176;51.448;6.650;2023-04-27T07:02:52;40501.69;;;-141.29;77.32
22025;BME280;11176;51.448;6.650;2023-04-27T07:05:19;40457.78;;;-141.29;75.85
22025;BME280;11176;51.448;6.650;2023-04-27T07:07:45;40437.84;;;-141.29;76.21
22025;BME280;11176;51.448;6.650;2023-04-27T07:10:12;40439.84;;;-141.29;76.29
22025;BME280;11176;51.448;6.650;2023-04-27T07:12:39;40393.94;;;-141.29;75.16
22025;BME280;11176;51.448;6.650;2023-04-27T07:15:06;40362.00;;;-141.29;73.93
22025;BME280;11176;51.448;6.650;2023-04-27T07:17:33;40330.09;;;-141.29;73.89
22025;BME280;11176;51.448;6.650;2023-04-27T07:20:00;40348.03;;;-141.29;72.98
22025;BME280;11176;51.448;6.650;2023-04-27T07:22:27;40362.00;;;-141.29;73.55
22025;BME280;11176;51.448;6.650;2023-04-27T07:24:54;40338.06;;;-141.29;73.31
22025;BME280;11176;51.448;6.650;2023-04-27T07:27:20;40318.13;;;-141.29;73.19
22025;BME280;11176;51.448;6.650;2023-04-27T07:29:47;40300.16;;;-141.29;72.63
22025;BME280;11176;51.448;6.650;2023-04-27T07:32:13;40310.13;;;-141.29;73.47
22025;BME280;11176;51.448;6.650;2023-04-27T07:34:40;40332.09;;;-141.29;74.56
22025;BME280;11176;51.448;6.650;2023-04-27T07:37:19;40314.13;;;-141.29;74.36
22025;BME280;11176;51.448;6.650;2023-04-27T07:39:45;40328.09;;;-141.29;73.81
22025;BME280;11176;51.448;6.650;2023-04-27T07:42:12;40348.03;;;-141.29;73.75
22025;BME280;11176;51.448;6.650;2023-04-27T07:44:38;40344.06;;;-141.29;73.39
22025;BME280;11176;51.448;6.650;2023-04-27T07:47:06;40290.19;;;-141.29;71.95
22025;BME280;11176;51.448;6.650;2023-04-27T07:49:32;40302.16;;;-141.29;71.54
22025;BME280;11176;51.448;6.650;2023-04-27T07:52:00;40306.13;;;-141.29;72.22
22025;BME280;11176;51.448;6.650;2023-04-27T07:54:26;40280.19;;;-141.29;71.08
22025;BME280;11176;51.448;6.650;2023-04-27T07:56:53;40242.28;;;-141.29;71.38
22025;BME280;11176;51.448;6.650;2023-04-27T07:59:20;40298.16;;;-141.29;71.00
22025;BME280;11176;51.448;6.650;2023-04-27T08:01:46;40272.22;;;-141.29;70.75
22025;BME280;11176;51.448;6.650;2023-04-27T08:04:13;40214.34;;;-141.29;69.40
22025;BME280;11176;51.448;6.650;2023-04-27T08:06:41;40272.22;;;-141.29;69.32
22025;BME280;11176;51.448;6.650;2023-04-27T08:09:08;40264.25;;;-141.29;69.97
22025;BME280;11176;51.448;6.650;2023-04-27T08:11:35;40246.28;;;-141.29;69.34
22025;BME280;11176;51.448;6.650;2023-04-27T08:14:02;40228.31;;;-141.29;68.04
22025;BME280;11176;51.448;6.650;2023-04-27T08:16:28;40184.44;;;-141.29;66.19
22025;BME280;11176;51.448;6.650;2023-04-27T08:18:55;40194.41;;;-141.29;65.72
22025;BME280;11176;51.448;6.650;2023-04-27T08:21:23;40198.41;;;-141.29;65.75
22025;BME280;11176;51.448;6.650;2023-04-27T08:23:50;40166.47;;;-141.29;66.19
22025;BME280;11176;51.448;6.650;2023-04-27T08:26:16;40170.47;;;-141.29;66.03
22025;BME280;11176;51.448;6.650;2023-04-27T08:28:43;40166.47;;;-141.29;65.16
22025;BME280;11176;51.448;6.650;2023-04-27T08:31:09;40136.53;;;-141.29;64.20
22025;BME280;11176;51.448;6.650;2023-04-27T08:33:36;40118.59;;;-141.29;63.87
22025;BME280;11176;51.448;6.650;2023-04-27T08:36:03;40154.50;;;-141.29;64.91
22025;BME280;11176;51.448;6.650;2023-04-27T08:38:30;40072.69;;;-141.29;61.67
22025;BME280;11176;51.448;6.650;2023-04-27T08:40:58;40108.59;;;-141.29;64.14
22025;BME280;11176;51.448;6.650;2023-04-27T08:43:43;40096.63;;;-141.29;62.62
22025;BME280;11176;51.448;6.650;2023-04-27T08:46:10;40058.72;;;-141.29;61.78
22025;BME280;11176;51.448;6.650;2023-04-27T08:48:36;40014.81;;;-141.29;60.31
22025;BME280;11176;51.448;6.650;2023-04-27T08:51:09;40022.81;;;-141.29;60.55
22025;BME280;11176;51.448;6.650;2023-04-27T08:53:36;40044.75;;;-141.29;59.70
22025;BME280;11176;51.448;6.650;2023-04-27T08:56:03;39982.91;;;-141.29;58.07
22025;BME280;11176;51.448;6.650;2023-04-27T08:58:37;39972.94;;;-141.29;56.63
22025;BME280;11176;51.448;6.650;2023-04-27T09:01:05;39958.97;;;-141.29;57.62
22025;BME280;11176;51.448;6.650;2023-04-27T09:03:35;39943.00;;;-141.29;56.58
22025;BME280;11176;51.448;6.650;2023-04-27T09:06:03;39895.13;;;-141.29;54.80
22025;BME280;11176;51.448;6.650;2023-04-27T09:08:45;39895.13;;;-141.29;53.97
22025;BME280;11176;51.448;6.650;2023-04-27T09:13:58;39795.38;;;-141.29;52.32
22025;BME280;11176;51.448;6.650;2023-04-27T09:16:26;39721.53;;;-141.29;49.03
22025;BME280;11176;51.448;6.650;2023-04-27T09:18:55;39669.69;;;-141.29;49.92
22025;BME280;11176;51.448;6.650;2023-04-27T09:21:27;39685.63;;;-141.29;49.76
22025;BME280;11176;51.448;6.650;2023-04-27T09:23:54;39675.66;;;-141.29;50.67
22025;BME280;11176;51.448;6.650;2023-04-27T09:26:23;39671.66;;;-141.29;50.34
22025;BME280;11176;51.448;6.650;2023-04-27T09:28:52;39623.78;;;-141.29;48.90
22025;BME280;11176;51.448;6.650;2023-04-27T09:31:19;39601.84;;;-141.29;48.99
22025;BME280;11176;51.448;6.650;2023-04-27T09:33:53;39575.91;;;-141.29;48.37
22025;BME280;11176;51.448;6.650;2023-04-27T09:36:21;39530.03;;;-141.29;46.97
22025;BME280;11176;51.448;6.650;2023-04-27T09:38:50;39532.03;;;-141.29;46.75
22025;BME280;11176;51.448;6.650;2023-04-27T09:41:17;39524.03;;;-141.29;46.97
22025;BME280;11176;51.448;6.650;2023-04-27T09:43:45;39490.13;;;-141.29;46.25
22025;BME280;11176;51.448;6.650;2023-04-27T09:46:13;39500.09;;;-141.29;46.31
22025;BME280;11176;51.448;6.650;2023-04-27T09:48:40;39468.19;;;-141.29;46.02
22025;BME280;11176;51.448;6.650;2023-04-27T09:51:07;39484.16;;;-141.29;45.82
22025;BME280;11176;51.448;6.650;2023-04-27T09:53:50;39490.13;;;-141.29;45.90
22025;BME280;11176;51.448;6.650;2023-04-27T09:56:40;39456.22;;;-141.29;45.20
22025;BME280;11176;51.448;6.650;2023-04-27T10:01:54;39394.38;;;-141.29;44.25
22025;BME280;11176;51.448;6.650;2023-04-27T10:06:59;39344.50;;;-141.29;42.57
22025;BME280;11176;51.448;6.650;2023-04-27T10:09:47;39308.59;;;-141.29;42.02
22025;BME280;11176;51.448;6.650;2023-04-27T10:12:21;39220.81;;;-141.29;39.08
22025;BME280;11176;51.448;6.650;2023-04-27T10:14:55;39153.00;;;-141.29;39.18
22025;BME280;11176;51.448;6.650;2023-04-27T10:17:24;39162.97;;;-141.29;40.49
22025;BME280;11176;51.448;6.650;2023-04-27T10:20:00;39133.06;;;-141.29;40.08
22025;BME280;11176;51.448;6.650;2023-04-27T10:22:56;39157.00;;;-141.29;40.71
22025;BME280;11176;51.448;6.650;2023-04-27T10:25:37;39153.00;;;-141.29;40.08
22025;BME280;11176;51.448;6.650;2023-04-27T10:28:05;39149.03;;;-141.29;40.44
22025;BME280;11176;51.448;6.650;2023-04-27T10:30:35;39157.00;;;-141.29;40.13
22025;BME280;11176;51.448;6.650;2023-04-27T10:33:09;39121.09;;;-141.29;38.66
22025;BME280;11176;51.448;6.650;2023-04-27T10:35:37;39015.38;;;-141.29;37.58
22025;BME280;11176;51.448;6.650;2023-04-27T10:38:19;39065.25;;;-141.29;38.15
22025;BME280;11176;51.448;6.650;2023-04-27T10:40:58;39017.38;;;-141.29;37.37
22025;BME280;11176;51.448;6.650;2023-04-27T10:43:29;38965.50;;;-141.29;36.99
22025;BME280;11176;51.448;6.650;2023-04-27T10:46:12;38945.56;;;-141.29;36.70
22025;BME280;11176;51.448;6.650;2023-04-27T10:48:40;38875.75;;;-141.29;36.08
22025;BME280;11176;51.448;6.650;2023-04-27T10:51:07;38949.56;;;-141.29;37.62
22025;BME280;11176;51.448;6.650;2023-04-27T10:53:35;38977.47;;;-141.29;37.85
22025;BME280;11176;51.448;6.650;2023-04-27T10:56:03;38997.44;;;-141.29;37.77
22025;BME280;11176;51.448;6.650;2023-04-27T10:58:33;39001.41;;;-141.29;37.53
22025;BME280;11176;51.448;6.650;2023-04-27T11:01:22;38965.50;;;-141.29;36.67
22025;BME280;11176;51.448;6.650;2023-04-27T11:03:54;39348.50;;;-141.29;47.46
22025;BME280;11176;51.448;6.650;2023-04-27T11:06:21;39348.50;;;-141.29;47.21
22025;BME280;11176;51.448;6.650;2023-04-27T11:08:47;39131.06;;;-141.29;39.56
22025;BME280;11176;51.448;6.650;2023-04-27T11:11:14;39097.16;;;-141.29;38.06
22025;BME280;11176;51.448;6.650;2023-04-27T11:13:43;39061.25;;;-141.29;36.52
22025;BME280;11176;51.448;6.650;2023-04-27T11:16:10;38977.47;;;-141.29;34.48
22025;BME280;11176;51.448;6.650;2023-04-27T11:18:36;39029.34;;;-141.29;34.78
22025;BME280;11176;51.448;6.650;2023-04-27T11:23:33;38921.63;;;-141.29;34.06
22025;BME280;11176;51.448;6.650;2023-04-27T11:28:37;38750.09;;;-141.29;31.69
22025;BME280;11176;51.448;6.650;2023-04-27T11:31:03;38748.09;;;-141.29;31.65
22025;BME280;11176;51.448;6.650;2023-04-27T11:33:30;38770.03;;;-141.29;31.29
22025;BME280;11176;51.448;6.650;2023-04-27T11:35:57;38778.03;;;-141.29;30.91
22025;BME280;11176;51.448;6.650;2023-04-27T11:38:24;38694.25;;;-141.29;30.22
22025;BME280;11176;51.448;6.650;2023-04-27T11:41:05;38658.34;;;-141.29;29.67
22025;BME280;11176;51.448;6.650;2023-04-27T11:43:33;38586.56;;;-141.29;29.03
22025;BME280;11176;51.448;6.650;2023-04-27T11:46:03;38528.72;;;-141.29;29.13
22025;BME280;11176;51.448;6.650;2023-04-27T11:48:31;38476.88;;;-141.29;28.69
22025;BME280;11176;51.448;6.650;2023-04-27T11:50:57;38490.84;;;-141.29;28.82
22025;BME280;11176;51.448;6.650;2023-04-27T11:53:38;38403.09;;;-141.29;28.06
22025;BME280;11176;51.448;6.650;2023-04-27T11:56:06;38359.22;;;-141.29;27.77
22025;BME280;11176;51.448;6.650;2023-04-27T11:58:37;38275.44;;;-141.29;27.21
22025;BME280;11176;51.448;6.650;2023-04-27T12:01:06;38135.88;;;-141.29;26.59
22025;BME280;11176;51.448;6.650;2023-04-27T12:03:33;37972.34;;;-141.29;26.13
22025;BME280;11176;51.448;6.650;2023-04-27T12:06:00;38000.28;;;-141.29;26.54
22025;BME280;11176;51.448;6.650;2023-04-27T12:08:30;37960.38;;;-141.29;26.60
22025;BME280;11176;51.448;6.650;2023-04-27T12:10:56;37874.66;;;-141.29;26.16
22025;BME280;11176;51.448;6.650;2023-04-27T12:13:23;37721.13;;;-141.29;25.10
22025;BME280;11176;51.448;6.650;2023-04-27T12:15:49;37645.34;;;-141.29;25.29
22025;BME280;11176;51.448;6.650;2023-04-27T12:18:15;37557.63;;;-141.29;24.58
22025;BME280;11176;51.448;6.650;2023-04-27T12:20:42;37489.84;;;-141.29;24.79
22025;BME280;11176;51.448;6.650;2023-04-27T12:23:08;37370.22;;;-141.29;24.27
22025;BME280;11176;51.448;6.650;2023-04-27T12:25:36;37294.47;;;-141.29;24.35
22025;BME280;11176;51.448;6.650;2023-04-27T12:28:02;37402.13;;;-141.29;25.33
22025;BME280;11176;51.448;6.650;2023-04-27T12:30:30;37392.16;;;-141.29;25.79
22025;BME280;11176;51.448;6.650;2023-04-27T12:32:57;37262.56;;;-141.29;25.10
22025;BME280;11176;51.448;6.650;2023-04-27T12:35:25;37282.50;;;-141.29;25.07
22025;BME280;11176;51.448;6.650;2023-04-27T12:37:52;37306.41;;;-141.29;25.39
22025;BME280;11176;51.448;6.650;2023-04-27T12:40:18;37278.50;;;-141.29;25.35
22025;BME280;11176;51.448;6.650;2023-04-27T12:42:44;37198.78;;;-141.29;24.80
22025;BME280;11176;51.448;6.650;2023-04-27T12:45:11;37156.91;;;-141.29;24.74
22025;BME280;11176;51.448;6.650;2023-04-27T12:47:37;37057.22;;;-141.29;24.08
22025;BME280;11176;51.448;6.650;2023-04-27T12:50:25;37057.22;;;-141.29;24.32
22025;BME280;11176;51.448;6.650;2023-04-27T12:52:52;37097.09;;;-141.29;25.01